createdAt,value
2024-04-16T00:00:54.011Z,31.01
2024-04-16T00:01:54.905Z,31.07
2024-04-16T00:02:54.031Z,31.02
2024-04-16T00:03:54.018Z,31.02
2024-04-16T00:04:54.211Z,31.05
2024-04-16T00:05:54.092Z,31.04
2024-04-16T00:06:54.219Z,31.07
2024-04-16T00:07:54.215Z,31.07
2024-04-16T00:08:54.493Z,31.04
2024-04-16T00:09:54.315Z,31.06
2024-04-16T00:10:54.473Z,31.04
2024-04-16T00:11:54.428Z,31.06
2024-04-16T00:12:54.456Z,31.09
2024-04-16T00:13:55.418Z,31.06
2024-04-16T00:14:54.554Z,31.04
2024-04-16T00:15:54.622Z,31.03
2024-04-16T00:16:54.795Z,30.99
2024-04-16T00:17:54.764Z,30.98
2024-04-16T00:18:54.811Z,30.99
2024-04-16T00:19:55.258Z,31.01
2024-04-16T00:20:54.882Z,31.02
2024-04-16T00:21:55.163Z,31.01
2024-04-16T00:22:55.041Z,31.02
2024-04-16T00:23:55.896Z,31.02
2024-04-16T00:24:55.918Z,31.01
2024-04-16T00:25:55.141Z,31.02
2024-04-16T00:26:55.334Z,30.96
2024-04-16T00:27:55.296Z,30.96
2024-04-16T00:28:55.280Z,31.01
2024-04-16T00:29:55.418Z,30.97
2024-04-16T00:30:55.406Z,30.98
2024-04-16T00:31:55.486Z,30.98
2024-04-16T00:32:55.515Z,31.01
2024-04-16T00:33:55.694Z,30.99
2024-04-16T00:34:55.585Z,30.98
2024-04-16T00:35:55.634Z,31.01
2024-04-16T00:36:55.679Z,30.99
2024-04-16T00:37:55.765Z,30.98
2024-04-16T00:38:55.841Z,31.01
2024-04-16T00:39:55.919Z,30.98
2024-04-16T00:40:55.956Z,30.95
2024-04-16T00:41:55.964Z,31.03
2024-04-16T00:42:55.981Z,30.92
2024-04-16T00:43:56.035Z,30.96
2024-04-16T00:44:56.117Z,30.93
2024-04-16T00:45:56.141Z,30.97
2024-04-16T00:46:56.258Z,30.96
2024-04-16T00:47:56.303Z,30.97
2024-04-16T00:48:56.309Z,30.93
2024-04-16T00:49:56.898Z,30.99
2024-04-16T00:50:56.425Z,30.97
2024-04-16T00:51:56.465Z,30.93
2024-04-16T00:52:56.502Z,30.94
2024-04-16T00:53:56.626Z,30.94
2024-04-16T00:54:56.647Z,30.97
2024-04-16T00:55:56.699Z,30.96
2024-04-16T00:56:56.768Z,30.96
2024-04-16T00:57:56.835Z,30.96
2024-04-16T00:58:56.880Z,30.92
2024-04-16T00:59:56.913Z,31.00
2024-04-16T01:00:57.024Z,30.92
2024-04-16T01:01:57.031Z,30.94
2024-04-16T01:02:57.130Z,30.93
2024-04-16T01:03:57.178Z,30.92
2024-04-16T01:04:57.225Z,30.95
2024-04-16T01:05:57.289Z,30.93
2024-04-16T01:06:57.355Z,30.94
2024-04-16T01:07:57.398Z,30.94
2024-04-16T01:08:57.475Z,30.92
2024-04-16T01:09:57.517Z,30.94
2024-04-16T01:10:57.584Z,30.94
2024-04-16T01:11:57.629Z,30.93
2024-04-16T01:12:57.665Z,30.93
2024-04-16T01:13:57.752Z,30.89
2024-04-16T01:14:57.789Z,30.90
2024-04-16T01:15:57.896Z,30.88
2024-04-16T01:16:57.907Z,30.93
2024-04-16T01:17:58.100Z,30.91
2024-04-16T01:18:58.233Z,30.89
2024-04-16T01:19:58.103Z,30.90
2024-04-16T01:20:58.166Z,30.89
2024-04-16T01:21:58.301Z,30.91
2024-04-16T01:22:58.276Z,30.94
2024-04-16T01:23:58.405Z,30.86
2024-04-16T01:24:58.535Z,30.91
2024-04-16T01:25:58.494Z,30.89
2024-04-16T01:26:58.586Z,30.91
2024-04-16T01:27:58.660Z,30.89
2024-04-16T01:28:58.665Z,30.89
2024-04-16T01:29:58.709Z,30.87
2024-04-16T01:30:58.770Z,30.93
2024-04-16T01:31:58.840Z,30.85
2024-04-16T01:32:58.914Z,30.80
2024-04-16T01:33:58.975Z,30.87
2024-04-16T01:34:59.064Z,30.89
2024-04-16T01:35:59.072Z,30.87
2024-04-16T01:36:59.117Z,30.89
2024-04-16T01:37:59.157Z,30.85
2024-04-16T01:38:59.165Z,30.86
2024-04-16T01:39:59.311Z,30.83
2024-04-16T01:40:59.328Z,30.87
2024-04-16T01:41:59.369Z,30.81
2024-04-16T01:42:59.623Z,30.80
2024-04-16T01:43:59.494Z,30.83
2024-04-16T01:44:59.548Z,30.83
2024-04-16T01:45:59.620Z,30.80
2024-04-16T01:46:59.719Z,30.80
2024-04-16T01:47:59.892Z,30.84
2024-04-16T01:49:02.043Z,30.81
2024-04-16T01:49:59.797Z,30.82
2024-04-16T01:50:59.802Z,30.77
2024-04-16T01:51:59.815Z,30.82
2024-04-16T01:52:59.801Z,30.78
2024-04-16T01:53:59.798Z,30.76
2024-04-16T01:54:59.819Z,30.74
2024-04-16T01:55:59.789Z,30.78
2024-04-16T01:56:59.778Z,30.73
2024-04-16T01:57:59.781Z,30.76
2024-04-16T01:58:59.780Z,30.73
2024-04-16T01:59:59.795Z,30.74
2024-04-16T02:00:59.961Z,30.77
2024-04-16T02:01:59.783Z,30.77
2024-04-16T02:02:59.834Z,30.73
2024-04-16T02:03:59.859Z,30.73
2024-04-16T02:04:59.860Z,30.72
2024-04-16T02:05:59.771Z,30.76
2024-04-16T02:06:59.797Z,30.76
2024-04-16T02:07:59.780Z,30.76
2024-04-16T02:08:59.831Z,30.70
2024-04-16T02:09:59.819Z,30.70
2024-04-16T02:10:59.787Z,30.73
2024-04-16T02:11:59.890Z,30.73
2024-04-16T02:12:59.802Z,30.72
2024-04-16T02:13:59.833Z,30.73
2024-04-16T02:14:59.798Z,30.70
2024-04-16T02:15:59.927Z,30.70
2024-04-16T02:16:59.853Z,30.70
2024-04-16T02:17:59.876Z,30.71
2024-04-16T02:18:59.833Z,30.74
2024-04-16T02:19:59.792Z,30.76
2024-04-16T02:20:59.820Z,30.71
2024-04-16T02:22:02.909Z,30.70
2024-04-16T02:22:59.821Z,30.69
2024-04-16T02:23:59.828Z,30.74
2024-04-16T02:24:59.815Z,30.69
2024-04-16T02:25:59.806Z,30.69
2024-04-16T02:26:59.803Z,30.69
2024-04-16T02:27:59.844Z,30.70
2024-04-16T02:28:59.812Z,30.64
2024-04-16T02:29:59.825Z,30.65
2024-04-16T02:30:59.874Z,30.67
2024-04-16T02:31:59.946Z,30.70
2024-04-16T02:32:59.879Z,30.66
2024-04-16T02:33:59.886Z,30.71
2024-04-16T02:34:59.835Z,30.63
2024-04-16T02:35:59.799Z,30.68
2024-04-16T02:36:59.922Z,30.67
2024-04-16T02:37:59.827Z,30.67
2024-04-16T02:38:59.823Z,30.69
2024-04-16T02:39:59.872Z,30.70
2024-04-16T02:40:59.812Z,30.68
2024-04-16T02:41:59.893Z,30.67
2024-04-16T02:42:59.828Z,30.67
2024-04-16T02:43:59.871Z,30.66
2024-04-16T02:44:59.833Z,30.71
2024-04-16T02:45:59.864Z,30.63
2024-04-16T02:47:02.202Z,30.68
2024-04-16T02:48:00.066Z,30.69
2024-04-16T02:48:59.863Z,30.67
2024-04-16T02:49:59.825Z,30.69
2024-04-16T02:50:59.849Z,30.63
2024-04-16T02:51:59.951Z,30.64
2024-04-16T02:52:59.825Z,30.66
2024-04-16T02:53:59.824Z,30.61
2024-04-16T02:54:59.877Z,30.66
2024-04-16T02:55:59.863Z,30.63
2024-04-16T02:56:59.854Z,30.68
2024-04-16T02:57:59.912Z,30.64
2024-04-16T02:58:59.822Z,30.61
2024-04-16T02:59:59.831Z,30.62
2024-04-16T03:01:00.011Z,30.68
2024-04-16T03:01:59.922Z,30.67
2024-04-16T03:02:59.913Z,30.66
2024-04-16T03:03:59.923Z,30.64
2024-04-16T03:04:59.927Z,30.61
2024-04-16T03:05:59.901Z,30.61
2024-04-16T03:06:59.909Z,30.61
2024-04-16T03:07:59.886Z,30.64
2024-04-16T03:08:59.854Z,30.62
2024-04-16T03:09:59.864Z,30.59
2024-04-16T03:10:59.947Z,30.64
2024-04-16T03:12:00.049Z,30.68
2024-04-16T03:13:00.076Z,30.67
2024-04-16T03:14:00.102Z,30.62
2024-04-16T03:15:00.201Z,30.62
2024-04-16T03:16:00.368Z,30.58
2024-04-16T03:17:00.339Z,30.59
2024-04-16T03:18:00.408Z,30.62
2024-04-16T03:19:00.551Z,30.62
2024-04-16T03:20:00.513Z,30.62
2024-04-16T03:21:00.658Z,30.57
2024-04-16T03:22:00.660Z,30.58
2024-04-16T03:23:00.691Z,30.61
2024-04-16T03:24:00.868Z,30.56
2024-04-16T03:25:00.964Z,30.62
2024-04-16T03:26:00.919Z,30.57
2024-04-16T03:27:00.990Z,30.64
2024-04-16T03:28:01.088Z,30.62
2024-04-16T03:29:01.155Z,30.58
2024-04-16T03:30:01.184Z,30.58
2024-04-16T03:31:01.213Z,30.59
2024-04-16T03:32:01.315Z,30.57
2024-04-16T03:33:01.423Z,30.58
2024-04-16T03:34:01.442Z,30.60
2024-04-16T03:35:01.501Z,30.61
2024-04-16T03:36:01.554Z,30.59
2024-04-16T03:37:01.634Z,30.64
2024-04-16T03:38:01.667Z,30.61
2024-04-16T03:39:01.732Z,30.59
2024-04-16T03:40:01.886Z,30.62
2024-04-16T03:41:02.027Z,30.59
2024-04-16T03:42:01.947Z,30.59
2024-04-16T03:43:02.043Z,30.58
2024-04-16T03:44:02.048Z,30.58
2024-04-16T03:45:02.133Z,30.61
2024-04-16T03:46:02.233Z,30.54
2024-04-16T03:47:02.350Z,30.52
2024-04-16T03:48:02.452Z,30.56
2024-04-16T03:49:02.488Z,30.53
2024-04-16T03:50:02.489Z,30.55
2024-04-16T03:51:02.524Z,30.58
2024-04-16T03:52:02.687Z,30.56
2024-04-16T03:53:02.696Z,30.56
2024-04-16T03:54:02.774Z,30.55
2024-04-16T03:55:02.924Z,30.54
2024-04-16T03:56:02.894Z,30.55
2024-04-16T03:57:02.999Z,30.53
2024-04-16T03:58:03.043Z,30.54
2024-04-16T03:59:03.121Z,30.55
2024-04-16T04:00:03.145Z,30.55
2024-04-16T04:01:03.301Z,30.52
2024-04-16T04:02:06.201Z,30.52
2024-04-16T04:03:03.373Z,30.53
2024-04-16T04:04:03.339Z,30.51
2024-04-16T04:05:03.382Z,30.36
2024-04-16T04:06:03.319Z,30.39
2024-04-16T04:07:03.378Z,30.24
2024-04-16T04:08:03.311Z,30.11
2024-04-16T04:09:03.291Z,29.98
2024-04-16T04:10:03.335Z,30.01
2024-04-16T04:11:03.389Z,29.82
2024-04-16T04:12:03.311Z,29.75
2024-04-16T04:13:03.332Z,29.71
2024-04-16T04:14:03.308Z,29.60
2024-04-16T04:15:03.318Z,29.50
2024-04-16T04:16:03.357Z,29.54
2024-04-16T04:17:03.340Z,29.47
2024-04-16T04:18:03.486Z,29.40
2024-04-16T04:19:03.364Z,29.27
2024-04-16T04:20:03.305Z,29.29
2024-04-16T04:21:03.329Z,29.24
2024-04-16T04:22:03.355Z,29.12
2024-04-16T04:23:03.358Z,29.10
2024-04-16T04:24:07.193Z,29.02
2024-04-16T04:25:04.339Z,28.89
2024-04-16T04:26:03.310Z,28.99
2024-04-16T04:27:03.337Z,28.79
2024-04-16T04:28:03.382Z,28.71
2024-04-16T04:29:03.381Z,28.80
2024-04-16T04:30:03.320Z,28.72
2024-04-16T04:31:03.377Z,28.65
2024-04-16T04:32:03.403Z,28.75
2024-04-16T04:33:03.369Z,28.73
2024-04-16T04:34:03.366Z,28.65
2024-04-16T04:35:03.354Z,28.76
2024-04-16T04:36:03.454Z,28.73
2024-04-16T04:37:03.497Z,28.78
2024-04-16T04:38:10.786Z,28.74
2024-04-16T04:39:10.833Z,28.82
2024-04-16T04:40:10.805Z,28.82
2024-04-16T04:41:10.746Z,28.82
2024-04-16T04:42:10.795Z,28.83
2024-04-16T04:43:10.761Z,28.79
2024-04-16T04:44:10.737Z,28.88
2024-04-16T04:45:10.884Z,28.90
2024-04-16T04:46:10.872Z,28.85
2024-04-16T04:47:10.777Z,28.85
2024-04-16T04:48:10.775Z,28.91
2024-04-16T04:49:10.764Z,28.90
2024-04-16T04:50:10.764Z,28.90
2024-04-16T04:51:10.748Z,28.98
2024-04-16T04:52:10.805Z,28.99
2024-04-16T04:53:10.769Z,28.93
2024-04-16T04:54:10.752Z,28.98
2024-04-16T04:55:10.803Z,28.99
2024-04-16T04:56:10.750Z,29.01
2024-04-16T04:57:10.882Z,29.00
2024-04-16T04:58:10.806Z,29.03
2024-04-16T04:59:10.794Z,29.01
2024-04-16T05:00:10.816Z,29.04
2024-04-16T05:01:10.793Z,29.06
2024-04-16T05:02:10.902Z,29.07
2024-04-16T05:03:10.758Z,29.04
2024-04-16T05:04:10.847Z,29.06
2024-04-16T05:05:10.775Z,29.05
2024-04-16T05:06:10.749Z,29.00
2024-04-16T05:07:10.872Z,29.07
2024-04-16T05:08:10.842Z,29.07
2024-04-16T05:09:10.877Z,29.06
2024-04-16T05:10:11.046Z,29.03
2024-04-16T05:11:11.498Z,29.07
2024-04-16T05:12:12.530Z,29.01
2024-04-16T05:13:11.082Z,29.04
2024-04-16T05:14:11.141Z,29.07
2024-04-16T05:15:11.304Z,29.09
2024-04-16T05:16:11.251Z,29.07
2024-04-16T05:17:11.287Z,29.03
2024-04-16T05:18:11.452Z,29.00
2024-04-16T05:19:11.385Z,29.03
2024-04-16T05:20:11.397Z,29.07
2024-04-16T05:21:12.400Z,29.10
2024-04-16T05:22:11.585Z,29.01
2024-04-16T05:23:11.557Z,29.01
2024-04-16T05:24:11.597Z,29.10
2024-04-16T05:25:11.651Z,28.96
2024-04-16T05:26:11.895Z,28.85
2024-04-16T05:27:11.654Z,28.57
2024-04-16T05:28:11.652Z,28.46
2024-04-16T05:29:11.659Z,27.45
2024-04-16T05:30:11.713Z,27.18
2024-04-16T05:31:11.738Z,27.21
2024-04-16T05:32:11.788Z,26.68
2024-04-16T05:33:11.897Z,26.21
2024-04-16T05:34:11.868Z,26.00
2024-04-16T05:35:11.851Z,25.96
2024-04-16T05:36:11.954Z,25.34
2024-04-16T05:37:11.998Z,25.90
2024-04-16T05:38:12.040Z,25.69
2024-04-16T05:39:12.079Z,26.37
2024-04-16T05:40:12.295Z,26.51
2024-04-16T05:41:12.295Z,26.28
2024-04-16T05:42:12.260Z,26.21
2024-04-16T05:43:12.415Z,25.54
2024-04-16T05:44:12.413Z,25.79
2024-04-16T05:45:13.378Z,26.23
2024-04-16T05:46:12.562Z,26.10
2024-04-16T05:47:12.946Z,26.30
2024-04-16T05:48:12.737Z,26.64
2024-04-16T05:49:12.905Z,26.70
2024-04-16T05:50:12.759Z,27.10
2024-04-16T05:51:12.802Z,27.21
2024-04-16T05:52:12.888Z,27.33
2024-04-16T05:53:12.915Z,27.34
2024-04-16T05:54:14.912Z,27.45
2024-04-16T05:55:13.037Z,27.58
2024-04-16T05:56:12.962Z,27.57
2024-04-16T05:57:12.999Z,27.74
2024-04-16T05:58:15.524Z,27.86
2024-04-16T05:59:14.270Z,27.99
2024-04-16T06:00:13.258Z,27.76
2024-04-16T06:01:13.368Z,27.51
2024-04-16T06:02:13.372Z,27.39
2024-04-16T06:03:13.299Z,27.22
2024-04-16T06:04:13.598Z,27.42
2024-04-16T06:05:13.450Z,27.08
2024-04-16T06:06:13.396Z,27.12
2024-04-16T06:07:13.482Z,26.84
2024-04-16T06:08:13.403Z,27.02
2024-04-16T06:09:13.398Z,26.99
2024-04-16T06:10:13.524Z,26.81
2024-04-16T06:11:13.729Z,27.02
2024-04-16T06:12:13.952Z,26.77
2024-04-16T06:13:13.435Z,26.64
2024-04-16T06:14:13.474Z,26.94
2024-04-16T06:15:13.584Z,26.58
2024-04-16T06:16:13.529Z,26.53
2024-04-16T06:17:13.429Z,26.48
2024-04-16T06:18:13.903Z,26.43
2024-04-16T06:19:13.494Z,26.46
2024-04-16T06:20:13.494Z,26.44
2024-04-16T06:21:13.506Z,26.37
2024-04-16T06:22:13.543Z,26.58
2024-04-16T06:23:13.916Z,26.41
2024-04-16T06:24:13.543Z,26.42
2024-04-16T06:25:14.070Z,26.44
2024-04-16T06:26:13.526Z,26.47
2024-04-16T06:27:13.906Z,26.51
2024-04-16T06:28:13.779Z,26.50
2024-04-16T06:29:13.570Z,26.33
2024-04-16T06:30:13.580Z,26.23
2024-04-16T06:31:16.649Z,26.16
2024-04-16T06:32:13.764Z,26.18
2024-04-16T06:33:14.427Z,26.16
2024-04-16T06:34:13.588Z,26.21
2024-04-16T06:35:13.596Z,26.41
2024-04-16T06:36:13.591Z,26.18
2024-04-16T06:37:13.626Z,26.06
2024-04-16T06:38:13.937Z,26.41
2024-04-16T06:39:13.702Z,26.60
2024-04-16T06:40:13.668Z,25.88
2024-04-16T06:41:13.749Z,26.16
2024-04-16T06:42:16.202Z,26.33
2024-04-16T06:43:14.019Z,26.23
2024-04-16T06:44:13.690Z,26.47
2024-04-16T06:45:13.605Z,26.53
2024-04-16T06:46:13.642Z,26.72
2024-04-16T06:47:13.639Z,26.77
2024-04-16T06:48:14.041Z,26.88
2024-04-16T06:49:18.405Z,26.90
2024-04-16T06:50:14.644Z,26.96
2024-04-16T06:51:13.700Z,27.01
2024-04-16T06:52:13.744Z,27.02
2024-04-16T06:53:13.955Z,27.11
2024-04-16T06:54:14.438Z,27.02
2024-04-16T06:55:13.646Z,27.16
2024-04-16T06:56:13.631Z,27.17
2024-04-16T06:57:13.615Z,27.16
2024-04-16T06:58:14.007Z,27.15
2024-04-16T06:59:13.920Z,27.18
2024-04-16T07:00:13.806Z,27.26
2024-04-16T07:01:13.906Z,27.18
2024-04-16T07:02:13.846Z,27.29
2024-04-16T07:03:15.455Z,27.28
2024-04-16T07:04:13.960Z,27.37
2024-04-16T07:05:13.975Z,27.27
2024-04-16T07:06:14.019Z,27.33
2024-04-16T07:07:14.199Z,27.36
2024-04-16T07:08:14.439Z,27.46
2024-04-16T07:09:14.108Z,27.44
2024-04-16T07:10:14.188Z,27.49
2024-04-16T07:11:14.206Z,27.49
2024-04-16T07:12:14.233Z,27.49
2024-04-16T07:13:15.798Z,27.52
2024-04-16T07:14:14.739Z,27.54
2024-04-16T07:15:14.278Z,27.57
2024-04-16T07:16:14.435Z,27.62
2024-04-16T07:17:14.953Z,27.64
2024-04-16T07:18:14.343Z,27.67
2024-04-16T07:19:14.441Z,27.67
2024-04-16T07:20:14.317Z,27.66
2024-04-16T07:21:14.271Z,27.65
2024-04-16T07:22:14.956Z,27.68
2024-04-16T07:23:14.295Z,27.74
2024-04-16T07:24:14.438Z,27.70
2024-04-16T07:25:14.286Z,27.68
2024-04-16T07:26:14.278Z,27.73
2024-04-16T07:27:14.977Z,27.70
2024-04-16T07:28:14.435Z,27.74
2024-04-16T07:29:14.297Z,27.76
2024-04-16T07:30:14.369Z,27.63
2024-04-16T07:31:18.284Z,27.86
2024-04-16T07:32:14.474Z,27.48
2024-04-16T07:33:14.576Z,26.56
2024-04-16T07:34:15.895Z,25.66
2024-04-16T07:35:14.295Z,25.62
2024-04-16T07:36:14.338Z,25.78
2024-04-16T07:37:14.528Z,25.48
2024-04-16T07:38:14.941Z,24.70
2024-04-16T07:39:17.485Z,24.34
2024-04-16T07:40:14.500Z,24.59
2024-04-16T07:41:14.473Z,25.00
2024-04-16T07:42:14.382Z,25.37
2024-04-16T07:43:15.247Z,25.47
2024-04-16T07:44:14.359Z,25.62
2024-04-16T07:45:14.460Z,25.68
2024-04-16T07:46:14.455Z,25.76
2024-04-16T07:47:14.625Z,25.80
2024-04-16T07:48:14.536Z,25.81
2024-04-16T07:49:14.481Z,25.97
2024-04-16T07:50:14.425Z,26.02
2024-04-16T07:51:14.404Z,25.96
2024-04-16T07:52:14.575Z,26.07
2024-04-16T07:53:14.467Z,26.06
2024-04-16T07:54:15.393Z,26.01
2024-04-16T07:55:14.603Z,26.11
2024-04-16T07:56:17.165Z,26.09
2024-04-16T07:57:15.754Z,26.18
2024-04-16T07:58:14.763Z,25.69
2024-04-16T07:59:14.875Z,25.65
2024-04-16T08:00:14.721Z,25.53
2024-04-16T08:01:18.739Z,25.35
2024-04-16T08:02:15.069Z,25.40
2024-04-16T08:03:14.754Z,25.20
2024-04-16T08:04:14.800Z,24.98
2024-04-16T08:05:14.705Z,25.06
2024-04-16T08:06:14.696Z,25.09
2024-04-16T08:07:14.683Z,25.05
2024-04-16T08:08:18.570Z,24.94
2024-04-16T08:09:15.660Z,24.94
2024-04-16T08:10:14.796Z,25.00
2024-04-16T08:11:14.865Z,24.85
2024-04-16T08:12:14.828Z,24.89
2024-04-16T08:13:15.037Z,25.14
2024-04-16T08:14:15.510Z,25.31
2024-04-16T08:15:14.669Z,25.34
2024-04-16T08:16:15.427Z,25.47
2024-04-16T08:17:14.761Z,25.56
2024-04-16T08:18:17.583Z,25.54
2024-04-16T08:19:16.488Z,25.57
2024-04-16T08:20:16.707Z,25.57
2024-04-16T08:21:15.394Z,25.61
2024-04-16T08:22:14.683Z,25.67
2024-04-16T08:23:15.086Z,25.70
2024-04-16T08:24:15.297Z,25.83
2024-04-16T08:25:14.867Z,25.85
2024-04-16T08:26:16.407Z,25.34
2024-04-16T08:27:14.956Z,24.67
2024-04-16T08:28:14.955Z,24.31
2024-04-16T08:29:14.978Z,24.09
2024-04-16T08:30:15.032Z,23.43
2024-04-16T08:31:15.023Z,23.50
2024-04-16T08:32:15.124Z,23.43
2024-04-16T08:33:15.393Z,23.11
2024-04-16T08:34:15.605Z,22.92
2024-04-16T08:35:15.379Z,23.28
2024-04-16T08:36:15.472Z,23.33
2024-04-16T08:37:15.362Z,23.33
2024-04-16T08:38:15.518Z,23.36
2024-04-16T08:39:15.576Z,23.12
2024-04-16T08:40:15.410Z,23.29
2024-04-16T08:41:15.378Z,23.48
2024-04-16T08:42:15.399Z,23.49
2024-04-16T08:43:15.759Z,24.19
2024-04-16T08:44:15.553Z,24.21
2024-04-16T08:45:15.779Z,24.40
2024-04-16T08:46:15.537Z,25.10
2024-04-16T08:47:15.579Z,25.24
2024-04-16T08:48:15.613Z,25.44
2024-04-16T08:49:16.498Z,25.43
2024-04-16T08:50:15.860Z,25.30
2024-04-16T08:51:21.001Z,25.40
2024-04-16T08:52:15.767Z,25.22
2024-04-16T08:53:16.131Z,25.63
2024-04-16T08:54:17.033Z,25.68
2024-04-16T08:55:15.893Z,25.60
2024-04-16T08:56:15.907Z,25.29
2024-04-16T08:57:15.915Z,25.15
2024-04-16T08:58:16.045Z,24.99
2024-04-16T08:59:15.999Z,24.87
2024-04-16T09:00:16.719Z,24.81
2024-04-16T09:01:16.203Z,24.77
2024-04-16T09:02:16.383Z,24.97
2024-04-16T09:03:16.566Z,24.91
2024-04-16T09:04:16.248Z,25.01
2024-04-16T09:05:16.328Z,25.04
2024-04-16T09:06:16.634Z,25.32
2024-04-16T09:07:16.300Z,25.28
2024-04-16T09:08:17.039Z,25.18
2024-04-16T09:09:16.323Z,25.37
2024-04-16T09:10:16.407Z,25.06
2024-04-16T09:11:16.488Z,24.90
2024-04-16T09:12:16.545Z,24.73
2024-04-16T09:13:16.571Z,24.83
2024-04-16T09:14:16.603Z,24.73
2024-04-16T09:15:16.866Z,24.72
2024-04-16T09:16:16.647Z,24.77
2024-04-16T09:17:17.220Z,24.58
2024-04-16T09:18:16.606Z,24.67
2024-04-16T09:19:16.643Z,24.57
2024-04-16T09:20:16.622Z,24.67
2024-04-16T09:21:16.788Z,24.75
2024-04-16T09:22:20.106Z,24.63
2024-04-16T09:23:17.415Z,24.53
2024-04-16T09:24:16.735Z,24.63
2024-04-16T09:25:16.748Z,24.63
2024-04-16T09:26:16.825Z,24.45
2024-04-16T09:27:17.012Z,24.38
2024-04-16T09:28:19.291Z,24.37
2024-04-16T09:29:16.768Z,24.42
2024-04-16T09:30:16.766Z,24.51
2024-04-16T09:31:17.748Z,24.58
2024-04-16T09:32:16.739Z,24.93
2024-04-16T09:34:19.652Z,24.58
2024-04-16T09:35:16.700Z,24.53
2024-04-16T09:36:16.693Z,24.56
2024-04-16T09:37:17.247Z,24.54
2024-04-16T09:38:17.197Z,24.44
2024-04-16T09:39:16.831Z,24.47
2024-04-16T09:40:16.783Z,24.44
2024-04-16T09:41:16.722Z,24.46
2024-04-16T09:42:16.736Z,24.48
2024-04-16T09:43:17.055Z,24.42
2024-04-16T09:44:16.722Z,24.41
2024-04-16T09:45:16.748Z,24.33
2024-04-16T09:46:17.140Z,24.36
2024-04-16T09:47:16.777Z,24.39
2024-04-16T09:48:16.835Z,24.30
2024-04-16T09:49:17.082Z,24.25
2024-04-16T09:50:27.236Z,24.31
2024-04-16T09:51:18.039Z,24.27
2024-04-16T09:52:16.790Z,24.24
2024-04-16T09:53:17.121Z,24.24
2024-04-16T09:54:17.676Z,24.16
2024-04-16T09:55:17.058Z,24.13
2024-04-16T09:56:16.785Z,24.18
2024-04-16T09:57:16.809Z,24.16
2024-04-16T09:58:16.836Z,24.11
2024-04-16T09:59:16.842Z,24.06
2024-04-16T10:00:17.997Z,24.09
2024-04-16T10:01:17.607Z,24.03
2024-04-16T10:02:16.952Z,23.97
2024-04-16T10:03:17.173Z,24.03
2024-04-16T10:04:18.224Z,24.03
2024-04-16T10:05:17.242Z,24.01
2024-04-16T10:06:17.211Z,24.03
2024-04-16T10:07:17.750Z,24.05
2024-04-16T10:08:17.684Z,23.98
2024-04-16T10:09:17.281Z,24.01
2024-04-16T10:10:17.404Z,23.93
2024-04-16T10:11:24.628Z,23.91
2024-04-16T10:12:18.565Z,23.91
2024-04-16T10:13:17.370Z,23.97
2024-04-16T10:14:17.354Z,23.98
2024-04-16T10:15:17.394Z,23.98
2024-04-16T10:16:17.387Z,24.04
2024-04-16T10:17:17.559Z,24.11
2024-04-16T10:18:17.454Z,24.12
2024-04-16T10:19:17.460Z,24.14
2024-04-16T10:20:17.420Z,24.13
2024-04-16T10:21:17.470Z,24.17
2024-04-16T10:22:17.583Z,24.20
2024-04-16T10:23:17.712Z,24.19
2024-04-16T10:24:18.117Z,24.22
2024-04-16T10:25:19.115Z,24.23
2024-04-16T10:26:18.166Z,24.23
2024-04-16T10:27:17.862Z,23.93
2024-04-16T10:28:17.970Z,23.86
2024-04-16T10:29:17.975Z,23.91
2024-04-16T10:30:17.983Z,23.88
2024-04-16T10:31:18.617Z,23.71
2024-04-16T10:32:18.094Z,23.44
2024-04-16T10:33:18.276Z,23.54
2024-04-16T10:34:18.269Z,23.39
2024-04-16T10:35:18.291Z,23.37
2024-04-16T10:36:18.326Z,23.46
2024-04-16T10:37:18.426Z,23.56
2024-04-16T10:38:18.544Z,23.54
2024-04-16T10:39:18.557Z,23.60
2024-04-16T10:40:18.602Z,23.62
2024-04-16T10:41:18.598Z,23.75
2024-04-16T10:42:18.694Z,23.70
2024-04-16T10:43:20.332Z,23.59
2024-04-16T10:44:19.060Z,23.52
2024-04-16T10:45:18.796Z,23.43
2024-04-16T10:46:18.855Z,23.39
2024-04-16T10:47:18.955Z,23.62
2024-04-16T10:48:18.794Z,23.48
2024-04-16T10:49:19.124Z,23.75
2024-04-16T10:50:19.056Z,23.75
2024-04-16T10:51:18.769Z,23.82
2024-04-16T10:52:18.810Z,23.83
2024-04-16T10:53:18.783Z,23.89
2024-04-16T10:54:18.748Z,23.89
2024-04-16T10:55:19.073Z,23.92
2024-04-16T10:56:18.779Z,23.92
2024-04-16T10:57:18.785Z,23.76
2024-04-16T10:58:18.771Z,23.86
2024-04-16T10:59:18.760Z,23.92
2024-04-16T11:00:18.769Z,23.74
2024-04-16T11:01:18.789Z,23.81
2024-04-16T11:02:19.080Z,23.95
2024-04-16T11:03:18.857Z,23.85
2024-04-16T11:04:19.024Z,23.78
2024-04-16T11:05:19.581Z,23.64
2024-04-16T11:06:19.148Z,23.17
2024-04-16T11:07:19.582Z,22.86
2024-04-16T11:08:18.816Z,22.92
2024-04-16T11:09:18.751Z,22.92
2024-04-16T11:10:18.836Z,22.61
2024-04-16T11:11:18.797Z,22.47
2024-04-16T11:12:18.778Z,22.55
2024-04-16T11:13:18.825Z,22.44
2024-04-16T11:14:18.771Z,22.62
2024-04-16T11:15:18.779Z,22.61
2024-04-16T11:16:19.118Z,22.71
2024-04-16T11:17:18.830Z,22.77
2024-04-16T11:18:18.881Z,22.61
2024-04-16T11:19:18.883Z,22.68
2024-04-16T11:20:18.814Z,22.55
2024-04-16T11:21:18.804Z,22.58
2024-04-16T11:22:18.908Z,22.88
2024-04-16T11:23:18.834Z,22.87
2024-04-16T11:24:18.830Z,22.89
2024-04-16T11:25:18.880Z,22.46
2024-04-16T11:26:18.781Z,22.34
2024-04-16T11:27:18.863Z,22.49
2024-04-16T11:28:19.078Z,22.27
2024-04-16T11:29:18.962Z,22.35
2024-04-16T11:30:19.009Z,22.30
2024-04-16T11:31:19.066Z,22.53
2024-04-16T11:32:19.084Z,22.67
2024-04-16T11:33:23.371Z,22.67
2024-04-16T11:34:20.172Z,22.61
2024-04-16T11:35:19.224Z,22.11
2024-04-16T11:36:19.122Z,21.85
2024-04-16T11:37:19.222Z,21.79
2024-04-16T11:38:19.133Z,21.80
2024-04-16T11:39:19.102Z,21.73
2024-04-16T11:40:19.189Z,21.50
2024-04-16T11:41:19.389Z,21.44
2024-04-16T11:42:19.175Z,21.41
2024-04-16T11:43:19.187Z,21.24
2024-04-16T11:44:19.113Z,21.18
2024-04-16T11:45:19.124Z,21.04
2024-04-16T11:46:19.330Z,20.79
2024-04-16T11:47:19.285Z,20.77
2024-04-16T11:48:19.301Z,20.94
2024-04-16T11:49:19.373Z,20.83
2024-04-16T11:50:19.415Z,20.62
2024-04-16T11:51:19.454Z,20.66
2024-04-16T11:52:19.623Z,20.65
2024-04-16T11:53:19.603Z,20.74
2024-04-16T11:54:19.650Z,20.38
2024-04-16T11:55:19.713Z,20.38
2024-04-16T11:56:19.765Z,20.04
2024-04-16T11:57:19.831Z,20.20
2024-04-16T11:58:19.994Z,20.06
2024-04-16T11:59:19.987Z,19.83
2024-04-16T12:00:20.019Z,20.03
2024-04-16T12:01:20.157Z,19.98
2024-04-16T12:02:20.202Z,19.89
2024-04-16T12:03:20.191Z,19.44
2024-04-16T12:04:20.333Z,18.53
2024-04-16T12:05:20.378Z,18.92
2024-04-16T12:06:20.346Z,18.99
2024-04-16T12:07:20.403Z,18.66
2024-04-16T12:08:20.384Z,18.75
2024-04-16T12:09:20.415Z,18.92
2024-04-16T12:10:20.479Z,19.41
2024-04-16T12:11:20.520Z,19.47
2024-04-16T12:12:20.442Z,19.82
2024-04-16T12:13:20.445Z,20.02
2024-04-16T12:14:20.452Z,20.31
2024-04-16T12:15:20.514Z,20.50
2024-04-16T12:16:20.689Z,20.72
2024-04-16T12:17:20.639Z,21.17
2024-04-16T12:18:20.892Z,21.43
2024-04-16T12:19:20.933Z,21.64
2024-04-16T12:20:20.791Z,22.27
2024-04-16T12:21:20.902Z,22.30
2024-04-16T12:22:20.925Z,22.47
2024-04-16T12:23:21.006Z,22.92
2024-04-16T12:24:21.030Z,22.58
2024-04-16T12:25:21.150Z,22.55
2024-04-16T12:26:21.145Z,22.51
2024-04-16T12:27:21.195Z,22.48
2024-04-16T12:28:21.616Z,22.42
2024-04-16T12:29:21.318Z,22.40
2024-04-16T12:30:21.395Z,22.33
2024-04-16T12:31:21.459Z,22.27
2024-04-16T12:32:21.483Z,22.29
2024-04-16T12:33:21.654Z,22.31
2024-04-16T12:34:21.579Z,22.22
2024-04-16T12:35:21.683Z,22.19
2024-04-16T12:36:21.702Z,22.14
2024-04-16T12:37:21.767Z,22.17
2024-04-16T12:38:21.750Z,22.13
2024-04-16T12:39:21.808Z,22.11
2024-04-16T12:40:23.855Z,22.02
2024-04-16T12:41:22.146Z,22.01
2024-04-16T12:42:21.921Z,22.00
2024-04-16T12:43:21.906Z,21.97
2024-04-16T12:44:21.803Z,21.88
2024-04-16T12:45:21.860Z,21.92
2024-04-16T12:46:21.902Z,21.91
2024-04-16T12:47:21.906Z,21.88
2024-04-16T12:48:22.055Z,21.84
2024-04-16T12:49:21.987Z,21.86
2024-04-16T12:50:21.875Z,21.81
2024-04-16T12:51:21.893Z,21.80
2024-04-16T12:52:21.848Z,21.74
2024-04-16T12:53:21.862Z,21.79
2024-04-16T12:54:22.618Z,21.71